sensor_id;sensor_type;location;lat;lon;timestamp;P1;durP1;ratioP1;P2;durP2;ratioP2
29538;SDS011;16482;51.046;4.498;2022-10-31T00:00:18;6.03;;;5.10;;
29538;SDS011;16482;51.046;4.498;2022-10-31T00:02:44;5.95;;;5.25;;
29538;SDS011;16482;51.046;4.498;2022-10-31T00:05:10;6.40;;;5.28;;
29538;SDS011;16482;51.046;4.498;2022-10-31T00:07:36;6.93;;;5.40;;
29538;SDS011;16482;51.046;4.498;2022-10-31T00:10:02;6.03;;;5.45;;
29538;SDS011;16482;51.046;4.498;2022-10-31T00:12:28;6.07;;;5.10;;
29538;SDS011;16482;51.046;4.498;2022-10-31T00:14:54;6.25;;;5.10;;
29538;SDS011;16482;51.046;4.498;2022-10-31T00:17:20;6.03;;;5.22;;
29538;SDS011;16482;51.046;4.498;2022-10-31T00:19:46;8.13;;;5.68;;
29538;SDS011;16482;51.046;4.498;2022-10-31T00:22:12;6.88;;;5.75;;
29538;SDS011;16482;51.046;4.498;2022-10-31T00:24:37;6.15;;;5.30;;
29538;SDS011;16482;51.046;4.498;2022-10-31T00:27:03;7.22;;;5.90;;
29538;SDS011;16482;51.046;4.498;2022-10-31T00:29:29;8.25;;;5.80;;
29538;SDS011;16482;51.046;4.498;2022-10-31T00:31:58;7.00;;;5.70;;
29538;SDS011;16482;51.046;4.498;2022-10-31T00:34:26;6.15;;;5.47;;
29538;SDS011;16482;51.046;4.498;2022-10-31T00:36:52;6.43;;;5.50;;
29538;SDS011;16482;51.046;4.498;2022-10-31T00:39:18;6.03;;;4.90;;
29538;SDS011;16482;51.046;4.498;2022-10-31T00:41:44;7.40;;;5.97;;
29538;SDS011;16482;51.046;4.498;2022-10-31T00:44:09;6.68;;;5.80;;
29538;SDS011;16482;51.046;4.498;2022-10-31T00:46:35;7.07;;;6.10;;
29538;SDS011;16482;51.046;4.498;2022-10-31T00:49:01;6.93;;;5.63;;
29538;SDS011;16482;51.046;4.498;2022-10-31T00:51:27;7.20;;;5.93;;
29538;SDS011;16482;51.046;4.498;2022-10-31T00:53:53;6.53;;;5.57;;
29538;SDS011;16482;51.046;4.498;2022-10-31T00:56:19;7.18;;;5.97;;
29538;SDS011;16482;51.046;4.498;2022-10-31T00:58:44;6.70;;;5.63;;
29538;SDS011;16482;51.046;4.498;2022-10-31T01:01:13;6.28;;;5.53;;
29538;SDS011;16482;51.046;4.498;2022-10-31T01:03:42;6.72;;;6.00;;
29538;SDS011;16482;51.046;4.498;2022-10-31T01:06:13;7.22;;;5.57;;
29538;SDS011;16482;51.046;4.498;2022-10-31T01:08:45;7.75;;;6.10;;
29538;SDS011;16482;51.046;4.498;2022-10-31T01:11:14;7.28;;;5.80;;
29538;SDS011;16482;51.046;4.498;2022-10-31T01:13:44;6.43;;;5.63;;
29538;SDS011;16482;51.046;4.498;2022-10-31T01:16:14;6.18;;;5.50;;
29538;SDS011;16482;51.046;4.498;2022-10-31T01:18:42;6.93;;;5.68;;
29538;SDS011;16482;51.046;4.498;2022-10-31T01:21:09;6.55;;;5.57;;
29538;SDS011;16482;51.046;4.498;2022-10-31T01:23:35;6.10;;;5.45;;
29538;SDS011;16482;51.046;4.498;2022-10-31T01:26:03;6.15;;;5.50;;
29538;SDS011;16482;51.046;4.498;2022-10-31T01:28:32;6.88;;;5.80;;
29538;SDS011;16482;51.046;4.498;2022-10-31T01:31:05;6.93;;;5.75;;
29538;SDS011;16482;51.046;4.498;2022-10-31T01:33:33;6.25;;;5.32;;
29538;SDS011;16482;51.046;4.498;2022-10-31T01:35:59;6.10;;;5.50;;
29538;SDS011;16482;51.046;4.498;2022-10-31T01:38:25;7.20;;;5.75;;
29538;SDS011;16482;51.046;4.498;2022-10-31T01:40:51;9.02;;;5.78;;
29538;SDS011;16482;51.046;4.498;2022-10-31T01:43:17;6.88;;;6.03;;
29538;SDS011;16482;51.046;4.498;2022-10-31T01:45:45;6.38;;;5.40;;
29538;SDS011;16482;51.046;4.498;2022-10-31T01:48:20;6.97;;;5.57;;
29538;SDS011;16482;51.046;4.498;2022-10-31T01:50:52;6.25;;;5.60;;
29538;SDS011;16482;51.046;4.498;2022-10-31T01:53:19;7.38;;;5.90;;
29538;SDS011;16482;51.046;4.498;2022-10-31T01:55:46;7.15;;;6.20;;
29538;SDS011;16482;51.046;4.498;2022-10-31T01:58:20;6.95;;;5.45;;
29538;SDS011;16482;51.046;4.498;2022-10-31T02:00:53;8.48;;;6.57;;
29538;SDS011;16482;51.046;4.498;2022-10-31T02:03:23;7.03;;;5.45;;
29538;SDS011;16482;51.046;4.498;2022-10-31T02:05:51;7.78;;;6.00;;
29538;SDS011;16482;51.046;4.498;2022-10-31T02:08:30;7.07;;;5.90;;
29538;SDS011;16482;51.046;4.498;2022-10-31T02:10:58;7.28;;;5.60;;
29538;SDS011;16482;51.046;4.498;2022-10-31T02:13:25;6.28;;;5.47;;
29538;SDS011;16482;51.046;4.498;2022-10-31T02:15:54;7.00;;;5.20;;
29538;SDS011;16482;51.046;4.498;2022-10-31T02:18:22;6.35;;;5.70;;
29538;SDS011;16482;51.046;4.498;2022-10-31T02:21:06;5.78;;;5.25;;
29538;SDS011;16482;51.046;4.498;2022-10-31T02:26:51;7.70;;;5.22;;
29538;SDS011;16482;51.046;4.498;2022-10-31T02:41:01;6.30;;;5.38;;
29538;SDS011;16482;51.046;4.498;2022-10-31T02:43:44;6.20;;;5.60;;
29538;SDS011;16482;51.046;4.498;2022-10-31T02:49:04;6.28;;;5.65;;
29538;SDS011;16482;51.046;4.498;2022-10-31T02:51:35;5.78;;;5.18;;
29538;SDS011;16482;51.046;4.498;2022-10-31T02:54:02;5.80;;;5.20;;
29538;SDS011;16482;51.046;4.498;2022-10-31T02:56:28;6.03;;;5.07;;
29538;SDS011;16482;51.046;4.498;2022-10-31T02:58:56;6.63;;;5.50;;
29538;SDS011;16482;51.046;4.498;2022-10-31T03:01:42;6.05;;;5.38;;
29538;SDS011;16482;51.046;4.498;2022-10-31T03:04:45;6.57;;;5.30;;
29538;SDS011;16482;51.046;4.498;2022-10-31T03:12:25;5.85;;;4.78;;
29538;SDS011;16482;51.046;4.498;2022-10-31T03:17:55;9.88;;;5.70;;
29538;SDS011;16482;51.046;4.498;2022-10-31T03:20:39;6.47;;;5.53;;
29538;SDS011;16482;51.046;4.498;2022-10-31T03:23:13;7.00;;;5.40;;
29538;SDS011;16482;51.046;4.498;2022-10-31T03:25:41;5.85;;;5.25;;
29538;SDS011;16482;51.046;4.498;2022-10-31T03:28:09;6.70;;;5.43;;
29538;SDS011;16482;51.046;4.498;2022-10-31T03:30:38;6.65;;;5.25;;
29538;SDS011;16482;51.046;4.498;2022-10-31T03:33:08;7.15;;;5.88;;
29538;SDS011;16482;51.046;4.498;2022-10-31T03:35:38;5.97;;;5.28;;
29538;SDS011;16482;51.046;4.498;2022-10-31T03:38:07;6.63;;;5.47;;
29538;SDS011;16482;51.046;4.498;2022-10-31T03:40:35;6.25;;;5.53;;
29538;SDS011;16482;51.046;4.498;2022-10-31T03:43:06;5.80;;;5.20;;
29538;SDS011;16482;51.046;4.498;2022-10-31T03:45:41;5.90;;;5.03;;
29538;SDS011;16482;51.046;4.498;2022-10-31T03:48:10;5.97;;;5.13;;
29538;SDS011;16482;51.046;4.498;2022-10-31T03:53:17;6.50;;;5.25;;
29538;SDS011;16482;51.046;4.498;2022-10-31T03:55:52;5.63;;;4.95;;
29538;SDS011;16482;51.046;4.498;2022-10-31T03:58:48;5.78;;;5.18;;
29538;SDS011;16482;51.046;4.498;2022-10-31T04:01:21;6.20;;;5.60;;
29538;SDS011;16482;51.046;4.498;2022-10-31T04:03:49;6.35;;;4.72;;
29538;SDS011;16482;51.046;4.498;2022-10-31T04:06:15;6.32;;;5.55;;
29538;SDS011;16482;51.046;4.498;2022-10-31T04:08:57;6.00;;;5.40;;
29538;SDS011;16482;51.046;4.498;2022-10-31T04:11:29;5.78;;;5.18;;
29538;SDS011;16482;51.046;4.498;2022-10-31T04:13:59;5.65;;;5.05;;
29538;SDS011;16482;51.046;4.498;2022-10-31T04:16:26;6.47;;;5.18;;
29538;SDS011;16482;51.046;4.498;2022-10-31T04:18:53;5.57;;;4.93;;
29538;SDS011;16482;51.046;4.498;2022-10-31T04:21:19;5.93;;;4.80;;
29538;SDS011;16482;51.046;4.498;2022-10-31T04:23:51;7.63;;;5.55;;
29538;SDS011;16482;51.046;4.498;2022-10-31T04:26:17;5.75;;;5.15;;
29538;SDS011;16482;51.046;4.498;2022-10-31T04:28:42;5.50;;;4.88;;
29538;SDS011;16482;51.046;4.498;2022-10-31T04:31:09;5.90;;;4.97;;
29538;SDS011;16482;51.046;4.498;2022-10-31T04:33:36;6.82;;;5.18;;
29538;SDS011;16482;51.046;4.498;2022-10-31T04:36:02;6.32;;;5.38;;
29538;SDS011;16482;51.046;4.498;2022-10-31T04:38:29;6.07;;;5.22;;
29538;SDS011;16482;51.046;4.498;2022-10-31T04:40:55;5.57;;;4.95;;
29538;SDS011;16482;51.046;4.498;2022-10-31T04:43:21;6.38;;;5.25;;
29538;SDS011;16482;51.046;4.498;2022-10-31T04:45:47;6.40;;;5.13;;
29538;SDS011;16482;51.046;4.498;2022-10-31T04:48:13;5.43;;;4.88;;
29538;SDS011;16482;51.046;4.498;2022-10-31T04:50:39;5.18;;;4.57;;
29538;SDS011;16482;51.046;4.498;2022-10-31T04:53:05;5.82;;;4.78;;
29538;SDS011;16482;51.046;4.498;2022-10-31T04:55:31;5.53;;;4.93;;
29538;SDS011;16482;51.046;4.498;2022-10-31T04:57:57;6.13;;;5.18;;
29538;SDS011;16482;51.046;4.498;2022-10-31T05:00:23;5.13;;;4.63;;
29538;SDS011;16482;51.046;4.498;2022-10-31T05:02:50;4.95;;;4.40;;
29538;SDS011;16482;51.046;4.498;2022-10-31T05:07:56;5.82;;;4.75;;
29538;SDS011;16482;51.046;4.498;2022-10-31T05:10:28;5.40;;;4.90;;
29538;SDS011;16482;51.046;4.498;2022-10-31T05:12:56;5.10;;;4.47;;
29538;SDS011;16482;51.046;4.498;2022-10-31T05:15:27;5.78;;;4.20;;
29538;SDS011;16482;51.046;4.498;2022-10-31T05:17:55;6.90;;;5.40;;
29538;SDS011;16482;51.046;4.498;2022-10-31T05:20:25;5.00;;;4.28;;
29538;SDS011;16482;51.046;4.498;2022-10-31T05:22:53;6.18;;;4.47;;
29538;SDS011;16482;51.046;4.498;2022-10-31T05:25:24;5.05;;;4.25;;
29538;SDS011;16482;51.046;4.498;2022-10-31T05:27:56;4.75;;;4.20;;
29538;SDS011;16482;51.046;4.498;2022-10-31T05:30:24;6.22;;;4.55;;
29538;SDS011;16482;51.046;4.498;2022-10-31T05:32:51;5.22;;;4.32;;
29538;SDS011;16482;51.046;4.498;2022-10-31T05:35:27;4.90;;;4.40;;
29538;SDS011;16482;51.046;4.498;2022-10-31T05:37:54;4.60;;;4.20;;
29538;SDS011;16482;51.046;4.498;2022-10-31T05:40:26;4.60;;;3.90;;
29538;SDS011;16482;51.046;4.498;2022-10-31T05:42:53;5.68;;;4.45;;
29538;SDS011;16482;51.046;4.498;2022-10-31T05:45:20;5.40;;;4.50;;
29538;SDS011;16482;51.046;4.498;2022-10-31T05:47:50;5.13;;;4.32;;
29538;SDS011;16482;51.046;4.498;2022-10-31T05:50:26;5.07;;;4.50;;
29538;SDS011;16482;51.046;4.498;2022-10-31T05:52:56;5.13;;;4.63;;
29538;SDS011;16482;51.046;4.498;2022-10-31T05:55:28;4.30;;;3.88;;
29538;SDS011;16482;51.046;4.498;2022-10-31T05:57:56;4.68;;;4.28;;
29538;SDS011;16482;51.046;4.498;2022-10-31T06:00:23;4.55;;;4.15;;
29538;SDS011;16482;51.046;4.498;2022-10-31T06:03:05;5.45;;;4.72;;
29538;SDS011;16482;51.046;4.498;2022-10-31T06:05:32;4.30;;;3.90;;
29538;SDS011;16482;51.046;4.498;2022-10-31T06:07:58;5.05;;;4.13;;
29538;SDS011;16482;51.046;4.498;2022-10-31T06:10:24;6.22;;;4.35;;
29538;SDS011;16482;51.046;4.498;2022-10-31T06:12:52;4.85;;;4.38;;
29538;SDS011;16482;51.046;4.498;2022-10-31T06:15:29;5.07;;;4.30;;
29538;SDS011;16482;51.046;4.498;2022-10-31T06:18:02;5.57;;;4.47;;
29538;SDS011;16482;51.046;4.498;2022-10-31T06:20:30;6.28;;;4.38;;
29538;SDS011;16482;51.046;4.498;2022-10-31T06:22:56;4.40;;;4.00;;
29538;SDS011;16482;51.046;4.498;2022-10-31T06:25:23;5.10;;;4.60;;
29538;SDS011;16482;51.046;4.498;2022-10-31T06:27:52;5.25;;;4.50;;
29538;SDS011;16482;51.046;4.498;2022-10-31T06:30:21;5.00;;;4.47;;
29538;SDS011;16482;51.046;4.498;2022-10-31T06:32:47;5.20;;;4.70;;
29538;SDS011;16482;51.046;4.498;2022-10-31T06:35:15;4.97;;;4.43;;
29538;SDS011;16482;51.046;4.498;2022-10-31T06:37:42;5.07;;;4.57;;
29538;SDS011;16482;51.046;4.498;2022-10-31T06:40:07;4.70;;;4.15;;
29538;SDS011;16482;51.046;4.498;2022-10-31T06:42:34;4.95;;;4.38;;
29538;SDS011;16482;51.046;4.498;2022-10-31T06:45:00;5.07;;;4.57;;
29538;SDS011;16482;51.046;4.498;2022-10-31T06:47:26;5.93;;;4.55;;
29538;SDS011;16482;51.046;4.498;2022-10-31T06:49:52;5.38;;;4.75;;
29538;SDS011;16482;51.046;4.498;2022-10-31T06:52:17;6.15;;;5.32;;
29538;SDS011;16482;51.046;4.498;2022-10-31T06:54:43;5.70;;;4.45;;
29538;SDS011;16482;51.046;4.498;2022-10-31T06:57:09;6.05;;;5.10;;
29538;SDS011;16482;51.046;4.498;2022-10-31T06:59:35;5.45;;;4.53;;
29538;SDS011;16482;51.046;4.498;2022-10-31T07:02:01;5.88;;;5.00;;
29538;SDS011;16482;51.046;4.498;2022-10-31T07:04:27;5.30;;;4.35;;
29538;SDS011;16482;51.046;4.498;2022-10-31T07:06:53;7.13;;;5.00;;
29538;SDS011;16482;51.046;4.498;2022-10-31T07:09:19;5.95;;;5.05;;
29538;SDS011;16482;51.046;4.498;2022-10-31T07:11:45;5.85;;;4.85;;
29538;SDS011;16482;51.046;4.498;2022-10-31T07:14:10;6.20;;;4.80;;
29538;SDS011;16482;51.046;4.498;2022-10-31T07:16:36;5.55;;;5.00;;
29538;SDS011;16482;51.046;4.498;2022-10-31T07:19:02;5.00;;;4.53;;
29538;SDS011;16482;51.046;4.498;2022-10-31T07:21:28;5.10;;;4.47;;
29538;SDS011;16482;51.046;4.498;2022-10-31T07:23:54;7.25;;;5.68;;
29538;SDS011;16482;51.046;4.498;2022-10-31T07:26:20;5.55;;;4.95;;
29538;SDS011;16482;51.046;4.498;2022-10-31T07:28:46;5.50;;;4.80;;
29538;SDS011;16482;51.046;4.498;2022-10-31T07:31:13;5.65;;;4.88;;
29538;SDS011;16482;51.046;4.498;2022-10-31T07:33:41;7.63;;;5.45;;
29538;SDS011;16482;51.046;4.498;2022-10-31T07:36:07;6.28;;;5.13;;
29538;SDS011;16482;51.046;4.498;2022-10-31T07:38:33;5.68;;;5.00;;
29538;SDS011;16482;51.046;4.498;2022-10-31T07:40:59;6.20;;;4.93;;
29538;SDS011;16482;51.046;4.498;2022-10-31T07:43:25;5.70;;;5.00;;
29538;SDS011;16482;51.046;4.498;2022-10-31T07:45:51;5.70;;;4.90;;
29538;SDS011;16482;51.046;4.498;2022-10-31T07:48:18;6.57;;;5.20;;
29538;SDS011;16482;51.046;4.498;2022-10-31T07:50:44;5.32;;;4.82;;
29538;SDS011;16482;51.046;4.498;2022-10-31T07:53:11;6.85;;;5.43;;
29538;SDS011;16482;51.046;4.498;2022-10-31T07:55:38;5.53;;;5.00;;
29538;SDS011;16482;51.046;4.498;2022-10-31T08:00:31;8.73;;;5.63;;
29538;SDS011;16482;51.046;4.498;2022-10-31T08:03:06;6.05;;;5.28;;
29538;SDS011;16482;51.046;4.498;2022-10-31T08:05:34;6.33;;;5.40;;
29538;SDS011;16482;51.046;4.498;2022-10-31T08:08:00;6.20;;;5.25;;
29538;SDS011;16482;51.046;4.498;2022-10-31T08:10:27;6.88;;;5.45;;
29538;SDS011;16482;51.046;4.498;2022-10-31T08:12:57;5.70;;;5.10;;
29538;SDS011;16482;51.046;4.498;2022-10-31T08:15:28;5.93;;;5.32;;
29538;SDS011;16482;51.046;4.498;2022-10-31T08:17:55;6.70;;;5.78;;
29538;SDS011;16482;51.046;4.498;2022-10-31T08:20:23;6.75;;;5.22;;
29538;SDS011;16482;51.046;4.498;2022-10-31T08:22:52;6.07;;;5.45;;
29538;SDS011;16482;51.046;4.498;2022-10-31T08:25:22;6.75;;;5.68;;
29538;SDS011;16482;51.046;4.498;2022-10-31T08:27:52;6.88;;;6.15;;
29538;SDS011;16482;51.046;4.498;2022-10-31T08:30:19;7.25;;;6.03;;
29538;SDS011;16482;51.046;4.498;2022-10-31T08:32:47;6.65;;;5.38;;
29538;SDS011;16482;51.046;4.498;2022-10-31T08:35:21;6.45;;;5.80;;
29538;SDS011;16482;51.046;4.498;2022-10-31T08:37:56;6.32;;;5.53;;
29538;SDS011;16482;51.046;4.498;2022-10-31T08:40:25;6.13;;;5.32;;
29538;SDS011;16482;51.046;4.498;2022-10-31T08:45:47;6.35;;;5.65;;
29538;SDS011;16482;51.046;4.498;2022-10-31T08:48:14;6.50;;;5.32;;
29538;SDS011;16482;51.046;4.498;2022-10-31T08:50:44;7.50;;;5.85;;
29538;SDS011;16482;51.046;4.498;2022-10-31T08:53:11;6.28;;;5.47;;
29538;SDS011;16482;51.046;4.498;2022-10-31T08:55:41;8.48;;;6.50;;
29538;SDS011;16482;51.046;4.498;2022-10-31T08:58:15;6.82;;;6.07;;
29538;SDS011;16482;51.046;4.498;2022-10-31T09:00:42;7.53;;;5.78;;
29538;SDS011;16482;51.046;4.498;2022-10-31T09:03:10;8.23;;;5.82;;
29538;SDS011;16482;51.046;4.498;2022-10-31T09:05:37;7.28;;;6.40;;
29538;SDS011;16482;51.046;4.498;2022-10-31T09:08:04;10.80;;;6.88;;
29538;SDS011;16482;51.046;4.498;2022-10-31T09:10:31;8.30;;;6.43;;
29538;SDS011;16482;51.046;4.498;2022-10-31T09:12:59;6.80;;;6.10;;
29538;SDS011;16482;51.046;4.498;2022-10-31T09:15:34;8.07;;;6.07;;
29538;SDS011;16482;51.046;4.498;2022-10-31T09:18:01;7.97;;;6.10;;
29538;SDS011;16482;51.046;4.498;2022-10-31T09:20:29;7.43;;;6.43;;
29538;SDS011;16482;51.046;4.498;2022-10-31T09:23:00;9.27;;;6.63;;
29538;SDS011;16482;51.046;4.498;2022-10-31T09:25:28;8.77;;;7.18;;
29538;SDS011;16482;51.046;4.498;2022-10-31T09:27:57;7.65;;;6.70;;
29538;SDS011;16482;51.046;4.498;2022-10-31T09:30:24;8.88;;;7.15;;
29538;SDS011;16482;51.046;4.498;2022-10-31T09:32:57;7.93;;;6.50;;
29538;SDS011;16482;51.046;4.498;2022-10-31T09:35:27;8.05;;;6.60;;
29538;SDS011;16482;51.046;4.498;2022-10-31T09:37:57;14.52;;;7.30;;
29538;SDS011;16482;51.046;4.498;2022-10-31T09:40:40;9.13;;;7.22;;
29538;SDS011;16482;51.046;4.498;2022-10-31T09:49:03;8.52;;;7.15;;
29538;SDS011;16482;51.046;4.498;2022-10-31T09:51:41;8.50;;;7.32;;
29538;SDS011;16482;51.046;4.498;2022-10-31T09:54:12;9.32;;;7.50;;
29538;SDS011;16482;51.046;4.498;2022-10-31T09:56:43;10.15;;;7.72;;
29538;SDS011;16482;51.046;4.498;2022-10-31T09:59:17;9.55;;;7.93;;
29538;SDS011;16482;51.046;4.498;2022-10-31T10:05:03;10.15;;;7.47;;
29538;SDS011;16482;51.046;4.498;2022-10-31T10:07:44;10.18;;;8.05;;
29538;SDS011;16482;51.046;4.498;2022-10-31T10:15:45;9.27;;;8.05;;
29538;SDS011;16482;51.046;4.498;2022-10-31T10:21:20;9.95;;;7.75;;
29538;SDS011;16482;51.046;4.498;2022-10-31T10:27:31;9.90;;;8.35;;
29538;SDS011;16482;51.046;4.498;2022-10-31T10:29:47;11.20;;;7.78;;
29538;SDS011;16482;51.046;4.498;2022-10-31T10:32:24;10.18;;;8.40;;
29538;SDS011;16482;51.046;4.498;2022-10-31T10:35:55;12.68;;;8.35;;
29538;SDS011;16482;51.046;4.498;2022-10-31T10:40:48;10.82;;;8.45;;
29538;SDS011;16482;51.046;4.498;2022-10-31T10:43:30;9.93;;;8.50;;
29538;SDS011;16482;51.046;4.498;2022-10-31T10:49:29;13.90;;;9.40;;
29538;SDS011;16482;51.046;4.498;2022-10-31T10:58:00;10.82;;;9.35;;
29538;SDS011;16482;51.046;4.498;2022-10-31T11:00:32;10.57;;;8.35;;
29538;SDS011;16482;51.046;4.498;2022-10-31T11:03:01;9.70;;;8.70;;
29538;SDS011;16482;51.046;4.498;2022-10-31T11:05:37;12.80;;;9.05;;
29538;SDS011;16482;51.046;4.498;2022-10-31T11:08:27;10.50;;;7.88;;
29538;SDS011;16482;51.046;4.498;2022-10-31T11:13:27;11.75;;;9.13;;
29538;SDS011;16482;51.046;4.498;2022-10-31T11:16:04;10.77;;;9.25;;
29538;SDS011;16482;51.046;4.498;2022-10-31T11:18:37;11.23;;;9.20;;
29538;SDS011;16482;51.046;4.498;2022-10-31T11:21:17;9.60;;;8.52;;
29538;SDS011;16482;51.046;4.498;2022-10-31T11:27:02;11.23;;;9.18;;
29538;SDS011;16482;51.046;4.498;2022-10-31T11:29:38;12.20;;;9.45;;
29538;SDS011;16482;51.046;4.498;2022-10-31T11:32:04;11.35;;;9.32;;
29538;SDS011;16482;51.046;4.498;2022-10-31T11:34:35;11.57;;;9.57;;
29538;SDS011;16482;51.046;4.498;2022-10-31T11:37:17;11.35;;;9.32;;
29538;SDS011;16482;51.046;4.498;2022-10-31T11:39:52;10.40;;;9.15;;
29538;SDS011;16482;51.046;4.498;2022-10-31T11:42:23;12.70;;;9.88;;
29538;SDS011;16482;51.046;4.498;2022-10-31T11:44:52;10.57;;;9.20;;
29538;SDS011;16482;51.046;4.498;2022-10-31T11:47:29;11.45;;;9.07;;
29538;SDS011;16482;51.046;4.498;2022-10-31T11:49:57;12.90;;;9.88;;
29538;SDS011;16482;51.046;4.498;2022-10-31T11:52:29;13.65;;;9.85;;
29538;SDS011;16482;51.046;4.498;2022-10-31T11:54:57;12.73;;;10.32;;
29538;SDS011;16482;51.046;4.498;2022-10-31T11:57:29;11.38;;;9.70;;
29538;SDS011;16482;51.046;4.498;2022-10-31T11:59:58;10.98;;;9.63;;
29538;SDS011;16482;51.046;4.498;2022-10-31T12:02:26;11.18;;;9.30;;
29538;SDS011;16482;51.046;4.498;2022-10-31T12:04:56;11.73;;;9.88;;
29538;SDS011;16482;51.046;4.498;2022-10-31T12:07:28;11.23;;;10.02;;
29538;SDS011;16482;51.046;4.498;2022-10-31T12:09:54;11.48;;;10.00;;
29538;SDS011;16482;51.046;4.498;2022-10-31T12:15:28;14.60;;;9.50;;
29538;SDS011;16482;51.046;4.498;2022-10-31T12:28:47;12.52;;;10.65;;
29538;SDS011;16482;51.046;4.498;2022-10-31T12:34:46;14.18;;;11.05;;
29538;SDS011;16482;51.046;4.498;2022-10-31T12:56:50;15.75;;;11.57;;
29538;SDS011;16482;51.046;4.498;2022-10-31T12:59:38;14.27;;;10.80;;
29538;SDS011;16482;51.046;4.498;2022-10-31T13:02:19;13.35;;;11.50;;
29538;SDS011;16482;51.046;4.498;2022-10-31T13:04:55;14.38;;;10.57;;
29538;SDS011;16482;51.046;4.498;2022-10-31T13:07:43;24.17;;;10.93;;
29538;SDS011;16482;51.046;4.498;2022-10-31T13:10:26;15.18;;;10.50;;
29538;SDS011;16482;51.046;4.498;2022-10-31T13:16:09;13.60;;;10.82;;
29538;SDS011;16482;51.046;4.498;2022-10-31T13:18:48;15.20;;;10.38;;
29538;SDS011;16482;51.046;4.498;2022-10-31T13:24:28;12.73;;;9.38;;
29538;SDS011;16482;51.046;4.498;2022-10-31T13:27:15;13.10;;;9.80;;
29538;SDS011;16482;51.046;4.498;2022-10-31T13:30:03;16.05;;;9.40;;
29538;SDS011;16482;51.046;4.498;2022-10-31T13:32:58;10.77;;;8.68;;
29538;SDS011;16482;51.046;4.498;2022-10-31T13:35:31;13.32;;;9.18;;
29538;SDS011;16482;51.046;4.498;2022-10-31T13:38:29;11.65;;;8.93;;
29538;SDS011;16482;51.046;4.498;2022-10-31T13:44:13;12.65;;;9.55;;
29538;SDS011;16482;51.046;4.498;2022-10-31T13:46:50;12.35;;;8.38;;
29538;SDS011;16482;51.046;4.498;2022-10-31T13:52:10;12.43;;;9.37;;
29538;SDS011;16482;51.046;4.498;2022-10-31T13:54:38;11.07;;;8.65;;
29538;SDS011;16482;51.046;4.498;2022-10-31T13:57:18;11.88;;;8.27;;
29538;SDS011;16482;51.046;4.498;2022-10-31T13:59:51;10.82;;;8.15;;
29538;SDS011;16482;51.046;4.498;2022-10-31T14:02:28;12.30;;;9.45;;
29538;SDS011;16482;51.046;4.498;2022-10-31T14:05:38;12.25;;;8.45;;
29538;SDS011;16482;51.046;4.498;2022-10-31T14:07:45;12.60;;;9.10;;
29538;SDS011;16482;51.046;4.498;2022-10-31T14:10:24;13.15;;;8.48;;
29538;SDS011;16482;51.046;4.498;2022-10-31T14:15:55;11.90;;;9.27;;
29538;SDS011;16482;51.046;4.498;2022-10-31T14:18:36;13.02;;;9.02;;
29538;SDS011;16482;51.046;4.498;2022-10-31T14:23:49;13.00;;;8.38;;
29538;SDS011;16482;51.046;4.498;2022-10-31T14:31:35;11.95;;;8.93;;
29538;SDS011;16482;51.046;4.498;2022-10-31T14:40:01;13.30;;;9.18;;
29538;SDS011;16482;51.046;4.498;2022-10-31T14:45:24;11.75;;;8.85;;
29538;SDS011;16482;51.046;4.498;2022-10-31T14:53:08;14.05;;;9.02;;
29538;SDS011;16482;51.046;4.498;2022-10-31T14:55:45;10.93;;;8.73;;
29538;SDS011;16482;51.046;4.498;2022-10-31T14:58:17;13.00;;;9.23;;
29538;SDS011;16482;51.046;4.498;2022-10-31T15:00:53;13.90;;;8.82;;
29538;SDS011;16482;51.046;4.498;2022-10-31T15:05:52;11.68;;;8.45;;
29538;SDS011;16482;51.046;4.498;2022-10-31T15:08:40;14.10;;;8.70;;
29538;SDS011;16482;51.046;4.498;2022-10-31T15:13:48;10.27;;;8.60;;
29538;SDS011;16482;51.046;4.498;2022-10-31T15:16:17;10.18;;;8.18;;
29538;SDS011;16482;51.046;4.498;2022-10-31T15:18:52;13.25;;;9.38;;
29538;SDS011;16482;51.046;4.498;2022-10-31T15:21:25;13.32;;;8.93;;
29538;SDS011;16482;51.046;4.498;2022-10-31T15:23:56;11.20;;;8.50;;
29538;SDS011;16482;51.046;4.498;2022-10-31T15:26:32;12.68;;;8.23;;
29538;SDS011;16482;51.046;4.498;2022-10-31T15:29:10;9.70;;;8.02;;
29538;SDS011;16482;51.046;4.498;2022-10-31T15:31:37;11.07;;;8.35;;
29538;SDS011;16482;51.046;4.498;2022-10-31T15:34:05;11.00;;;8.45;;
29538;SDS011;16482;51.046;4.498;2022-10-31T15:36:47;11.52;;;7.65;;
29538;SDS011;16482;51.046;4.498;2022-10-31T15:39:17;11.65;;;8.10;;
29538;SDS011;16482;51.046;4.498;2022-10-31T15:41:54;9.35;;;8.18;;
29538;SDS011;16482;51.046;4.498;2022-10-31T15:44:26;12.35;;;8.68;;
29538;SDS011;16482;51.046;4.498;2022-10-31T15:47:03;12.80;;;8.52;;
29538;SDS011;16482;51.046;4.498;2022-10-31T15:49:40;13.75;;;8.30;;
29538;SDS011;16482;51.046;4.498;2022-10-31T15:52:14;14.13;;;8.55;;
29538;SDS011;16482;51.046;4.498;2022-10-31T15:54:48;13.70;;;8.35;;
29538;SDS011;16482;51.046;4.498;2022-10-31T15:57:19;13.45;;;8.35;;
29538;SDS011;16482;51.046;4.498;2022-10-31T15:59:47;13.52;;;8.70;;
29538;SDS011;16482;51.046;4.498;2022-10-31T16:02:18;11.77;;;8.50;;
29538;SDS011;16482;51.046;4.498;2022-10-31T16:04:53;10.90;;;8.23;;
29538;SDS011;16482;51.046;4.498;2022-10-31T16:07:22;11.15;;;8.20;;
29538;SDS011;16482;51.046;4.498;2022-10-31T16:09:50;11.65;;;8.23;;
29538;SDS011;16482;51.046;4.498;2022-10-31T16:12:18;10.07;;;8.40;;
29538;SDS011;16482;51.046;4.498;2022-10-31T16:14:46;11.68;;;8.32;;
29538;SDS011;16482;51.046;4.498;2022-10-31T16:17:15;11.45;;;8.43;;
29538;SDS011;16482;51.046;4.498;2022-10-31T16:20:04;11.43;;;8.48;;
29538;SDS011;16482;51.046;4.498;2022-10-31T16:22:32;12.57;;;8.20;;
29538;SDS011;16482;51.046;4.498;2022-10-31T16:25:02;13.23;;;8.55;;
29538;SDS011;16482;51.046;4.498;2022-10-31T16:27:35;10.73;;;8.73;;
29538;SDS011;16482;51.046;4.498;2022-10-31T16:30:24;14.32;;;9.27;;
29538;SDS011;16482;51.046;4.498;2022-10-31T16:33:04;11.05;;;9.00;;
29538;SDS011;16482;51.046;4.498;2022-10-31T16:35:46;11.60;;;8.75;;
29538;SDS011;16482;51.046;4.498;2022-10-31T16:38:13;11.25;;;8.65;;
29538;SDS011;16482;51.046;4.498;2022-10-31T16:40:39;14.07;;;8.93;;
29538;SDS011;16482;51.046;4.498;2022-10-31T16:43:13;11.50;;;8.98;;
29538;SDS011;16482;51.046;4.498;2022-10-31T16:45:47;12.82;;;9.45;;
29538;SDS011;16482;51.046;4.498;2022-10-31T16:48:16;13.13;;;8.73;;
29538;SDS011;16482;51.046;4.498;2022-10-31T16:50:45;10.95;;;8.95;;
29538;SDS011;16482;51.046;4.498;2022-10-31T16:53:13;10.93;;;8.75;;
29538;SDS011;16482;51.046;4.498;2022-10-31T16:55:42;11.95;;;8.77;;
29538;SDS011;16482;51.046;4.498;2022-10-31T16:58:12;13.52;;;9.55;;
29538;SDS011;16482;51.046;4.498;2022-10-31T17:00:58;10.85;;;8.88;;
29538;SDS011;16482;51.046;4.498;2022-10-31T17:03:30;13.50;;;9.43;;
29538;SDS011;16482;51.046;4.498;2022-10-31T17:06:10;14.75;;;9.80;;
29538;SDS011;16482;51.046;4.498;2022-10-31T17:09:01;15.13;;;10.15;;
29538;SDS011;16482;51.046;4.498;2022-10-31T17:11:28;13.20;;;9.65;;
29538;SDS011;16482;51.046;4.498;2022-10-31T17:13:54;12.38;;;9.38;;
29538;SDS011;16482;51.046;4.498;2022-10-31T17:16:21;12.68;;;10.00;;
29538;SDS011;16482;51.046;4.498;2022-10-31T17:18:48;15.10;;;10.00;;
29538;SDS011;16482;51.046;4.498;2022-10-31T17:21:18;13.13;;;9.85;;
29538;SDS011;16482;51.046;4.498;2022-10-31T17:23:48;13.75;;;10.35;;
29538;SDS011;16482;51.046;4.498;2022-10-31T17:26:17;15.63;;;10.15;;
29538;SDS011;16482;51.046;4.498;2022-10-31T17:28:43;12.52;;;10.23;;
29538;SDS011;16482;51.046;4.498;2022-10-31T17:31:32;12.30;;;9.55;;
29538;SDS011;16482;51.046;4.498;2022-10-31T17:34:00;14.90;;;10.18;;
29538;SDS011;16482;51.046;4.498;2022-10-31T17:36:29;14.27;;;9.95;;
29538;SDS011;16482;51.046;4.498;2022-10-31T17:38:56;12.10;;;9.98;;